Time;durP1;ratioP1;P1;durP2;ratioP2;P2;SDS_P1;SDS_P2;PMS_P1;PMS_P2;Temp;Humidity;BMP_temperature;BMP_pressure;BME280_temperature;BME280_humidity;BME280_pressure;Samples;Min_cycle;Max_cycle;Signal;HPM_P1;HPM_P2
2023/04/11 00:02:16;;;;;;;29.85;20.13;;;;;;;7.18;100.00;100511.09;5065709;28;20060;-68
2023/04/11 00:04:42;;;;;;;29.85;20.30;;;;;;;7.06;100.00;100498.63;5084069;28;20845;-68
2023/04/11 00:07:08;;;;;;;27.75;19.48;;;;;;;7.07;100.00;100499.47;5084366;28;20221;-68
2023/04/11 00:09:34;;;;;;;34.72;21.58;;;;;;;7.02;100.00;100496.31;5065566;28;20085;-69
2023/04/11 00:12:00;;;;;;;28.33;20.35;;;;;;;7.03;100.00;100505.03;5065080;28;20024;-68
2023/04/11 00:14:27;;;;;;;31.90;20.88;;;;;;;6.85;100.00;100482.34;5083456;28;20434;-68
2023/04/11 00:16:53;;;;;;;32.38;21.00;;;;;;;6.82;100.00;100481.69;5065503;28;20055;-67
2023/04/11 00:19:22;;;;;;;32.25;21.02;;;;;;;6.74;100.00;100479.56;5065741;28;20035;-68
2023/04/11 00:21:48;;;;;;;31.45;21.30;;;;;;;6.91;100.00;100499.72;5084017;28;20020;-68
2023/04/11 00:24:13;;;;;;;31.55;21.35;;;;;;;6.89;100.00;100502.50;5083741;28;20035;-68
2023/04/11 00:26:39;;;;;;;31.60;21.02;;;;;;;6.85;100.00;100505.47;5084516;28;20036;-68
2023/04/11 00:29:04;;;;;;;30.13;20.23;;;;;;;6.78;100.00;100494.38;5083732;28;20040;-68
2023/04/11 00:31:30;;;;;;;28.67;19.45;;;;;;;6.60;100.00;100471.66;5084309;28;20036;-68
2023/04/11 00:33:55;;;;;;;27.08;19.25;;;;;;;6.59;100.00;100485.97;5083559;28;20016;-68
2023/04/11 00:36:20;;;;;;;30.25;19.67;;;;;;;6.67;100.00;100509.41;5083883;28;20039;-68
2023/04/11 00:38:46;;;;;;;29.38;19.77;;;;;;;6.59;100.00;100493.09;5083706;28;20071;-68
2023/04/11 00:41:12;;;;;;;26.75;18.05;;;;;;;6.61;100.00;100505.34;5083776;28;20062;-68
2023/04/11 00:43:37;;;;;;;28.52;18.75;;;;;;;6.50;100.00;100493.72;5084057;28;20247;-69
2023/04/11 00:46:03;;;;;;;29.42;19.90;;;;;;;6.54;100.00;100500.53;5083718;28;20039;-68
2023/04/11 00:48:30;;;;;;;28.70;20.20;;;;;;;6.51;100.00;100498.06;5083253;28;20081;-67
2023/04/11 00:50:56;;;;;;;30.85;18.65;;;;;;;6.43;100.00;100493.31;5066435;28;20032;-67
2023/04/11 00:53:22;;;;;;;28.65;18.75;;;;;;;6.44;100.00;100484.34;5088092;28;20036;-67
2023/04/11 00:55:49;;;;;;;31.17;20.02;;;;;;;6.52;100.00;100505.13;5087059;28;20487;-69
2023/04/11 00:58:15;;;;;;;28.48;19.13;;;;;;;6.48;100.00;100495.66;5087134;28;20059;-67
2023/04/11 01:00:41;;;;;;;30.35;18.70;;;;;;;6.46;100.00;100494.91;5087307;28;20032;-67
2023/04/11 01:03:07;;;;;;;28.20;19.08;;;;;;;6.42;100.00;100496.91;5087745;28;20036;-68
2023/04/11 01:05:34;;;;;;;27.80;19.33;;;;;;;6.38;100.00;100483.88;5087053;28;20116;-68
2023/04/11 01:08:00;;;;;;;28.92;18.95;;;;;;;6.38;100.00;100492.75;5086944;28;20456;-68
2023/04/11 01:10:29;;;;;;;27.88;19.20;;;;;;;6.19;100.00;100462.97;5087035;28;20028;-68
2023/04/11 01:12:58;;;;;;;27.10;18.15;;;;;;;6.28;100.00;100488.13;5086687;28;20421;-68
2023/04/11 01:15:23;;;;;;;29.00;18.60;;;;;;;6.11;100.00;100460.00;5087355;28;20047;-68
2023/04/11 01:17:51;;;;;;;25.88;18.55;;;;;;;6.20;100.00;100480.69;5086906;28;20146;-68
2023/04/11 01:20:17;;;;;;;26.80;18.08;;;;;;;6.18;100.00;100479.94;5087047;28;20031;-68
2023/04/11 01:22:44;;;;;;;28.55;19.15;;;;;;;6.15;100.00;100487.25;5068863;28;20120;-68
2023/04/11 01:25:11;;;;;;;25.35;18.35;;;;;;;6.13;100.00;100484.69;5086896;28;20527;-68
2023/04/11 01:27:36;;;;;;;26.30;17.85;;;;;;;6.03;100.00;100470.28;5069381;28;20040;-68
2023/04/11 01:30:02;;;;;;;28.52;19.17;;;;;;;6.05;100.00;100476.38;5086544;28;20024;-68
2023/04/11 01:32:28;;;;;;;29.25;19.00;;;;;;;5.81;100.00;100448.72;5087427;28;20028;-68
2023/04/11 01:34:56;;;;;;;26.98;17.98;;;;;;;5.96;100.00;100474.31;5086825;28;20023;-68
2023/04/11 01:37:21;;;;;;;30.02;18.40;;;;;;;5.78;100.00;100451.56;5086881;28;20460;-67
2023/04/11 01:39:47;;;;;;;27.73;17.63;;;;;;;5.76;100.00;100442.81;5086784;28;20039;-68
2023/04/11 01:42:12;;;;;;;24.90;17.15;;;;;;;5.88;100.00;100466.00;5086602;28;20040;-67
2023/04/11 01:44:38;;;;;;;25.55;18.30;;;;;;;5.74;100.00;100447.38;5086894;28;20105;-67
2023/04/11 01:47:04;;;;;;;26.75;19.38;;;;;;;5.85;100.00;100468.00;5086416;28;20101;-67
2023/04/11 01:49:29;;;;;;;27.10;18.80;;;;;;;5.76;100.00;100456.13;5086428;28;20052;-68
2023/04/11 01:51:55;;;;;;;24.63;18.05;;;;;;;5.84;100.00;100472.47;5086520;28;20036;-67
2023/04/11 01:54:20;;;;;;;27.55;18.90;;;;;;;5.78;100.00;100459.56;5086121;28;20040;-68
2023/04/11 01:56:46;;;;;;;30.55;19.33;;;;;;;5.74;100.00;100457.19;5085940;28;20030;-67
2023/04/11 01:59:12;;;;;;;28.65;18.27;;;;;;;5.63;100.00;100447.25;5084379;28;20063;-67
2023/04/11 02:01:38;;;;;;;27.83;18.60;;;;;;;5.67;100.00;100451.41;5085940;28;20032;-68
2023/04/11 02:04:03;;;;;;;29.48;19.13;;;;;;;5.64;100.00;100448.13;5082557;28;20517;-67
2023/04/11 02:06:29;;;;;;;26.50;18.83;;;;;;;5.51;100.00;100428.59;5086848;28;20024;-67
2023/04/11 02:08:54;;;;;;;27.13;18.98;;;;;;;5.56;100.00;100439.75;5085826;28;20047;-66
2023/04/11 02:11:20;;;;;;;29.77;18.77;;;;;;;5.50;100.00;100430.38;5088955;28;20039;-67
2023/04/11 02:13:45;;;;;;;26.30;19.08;;;;;;;5.49;100.00;100439.31;5087738;28;20379;-67
2023/04/11 02:16:16;;;;;;;26.70;17.80;;;;;;;5.48;100.00;100437.59;5086601;28;20107;-67
2023/04/11 02:18:43;;;;;;;30.90;19.05;;;;;;;5.42;100.00;100418.53;5087586;28;20039;-67
2023/04/11 02:21:08;;;;;;;30.77;19.63;;;;;;;5.36;100.00;100406.50;5086781;28;20467;-67
2023/04/11 02:23:34;;;;;;;27.23;19.20;;;;;;;5.30;100.00;100406.03;5087476;28;20043;-67
2023/04/11 02:26:00;;;;;;;28.25;18.95;;;;;;;5.45;100.00;100431.66;5067956;28;20123;-67
2023/04/11 02:28:26;;;;;;;26.33;18.42;;;;;;;5.42;100.00;100435.34;5069211;28;20056;-67
2023/04/11 02:30:52;;;;;;;28.75;18.23;;;;;;;5.20;100.00;100391.63;5087137;28;20020;-67
2023/04/11 02:33:18;;;;;;;27.65;19.05;;;;;;;5.36;100.00;100421.59;5086703;28;20040;-68
2023/04/11 02:35:45;;;;;;;28.55;18.50;;;;;;;5.25;100.00;100411.66;5069018;28;20038;-73
2023/04/11 02:38:11;;;;;;;30.63;19.63;;;;;;;5.29;100.00;100421.13;5087088;28;20039;-72
2023/04/11 02:40:36;;;;;;;26.83;17.88;;;;;;;5.33;100.00;100427.13;5087722;28;20077;-73
2023/04/11 02:43:02;;;;;;;26.83;19.02;;;;;;;5.13;100.00;100401.81;5086958;28;20120;-72
2023/04/11 02:45:28;;;;;;;26.48;17.58;;;;;;;5.07;100.00;100388.91;5069270;28;20193;-72
2023/04/11 02:47:53;;;;;;;27.73;18.23;;;;;;;5.03;100.00;100391.88;5087047;28;20102;-72
2023/04/11 02:50:18;;;;;;;29.67;19.88;;;;;;;5.21;100.00;100427.88;5086875;28;20480;-72
2023/04/11 02:52:46;;;;;;;29.77;18.55;;;;;;;5.18;100.00;100420.09;5087382;28;20464;-73
2023/04/11 02:55:12;;;;;;;26.65;18.67;;;;;;;4.93;100.00;100382.78;5087210;28;20418;-72
2023/04/11 02:57:37;;;;;;;25.25;17.95;;;;;;;5.00;100.00;100408.84;5087195;28;20031;-72
2023/04/11 03:00:06;;;;;;;27.88;18.13;;;;;;;5.08;100.00;100422.50;5086846;28;20028;-72
2023/04/11 03:02:32;;;;;;;26.38;17.85;;;;;;;5.02;100.00;100414.94;5086881;28;20036;-72
2023/04/11 03:04:57;;;;;;;25.55;17.30;;;;;;;5.00;100.00;100415.97;5086324;28;20701;-72
2023/04/11 03:07:23;;;;;;;24.38;17.77;;;;;;;4.94;100.00;100416.38;5087153;28;20032;-73
2023/04/11 03:09:49;;;;;;;26.05;16.60;;;;;;;4.98;100.00;100428.50;5086339;28;20042;-74
2023/04/11 03:12:15;;;;;;;26.25;18.02;;;;;;;4.95;100.00;100415.41;5068548;28;20052;-72
2023/04/11 03:14:40;;;;;;;26.20;17.70;;;;;;;4.74;100.00;100399.88;5070832;28;20035;-67
2023/04/11 03:17:05;;;;;;;28.65;17.60;;;;;;;4.90;100.00;100418.34;5089258;28;20027;-67
2023/04/11 03:19:31;;;;;;;28.33;19.20;;;;;;;4.87;100.00;100423.03;5087729;28;20034;-67
2023/04/11 03:21:57;;;;;;;26.27;17.77;;;;;;;4.83;100.00;100408.22;5090009;28;20040;-67
2023/04/11 03:24:22;;;;;;;28.30;19.25;;;;;;;4.88;100.00;100422.06;5088668;28;20508;-67
2023/04/11 03:26:47;;;;;;;32.90;19.90;;;;;;;4.76;100.00;100402.44;5091756;28;20819;-67
2023/04/11 03:29:13;;;;;;;27.88;18.20;;;;;;;4.73;100.00;100402.63;5086028;28;20032;-67
2023/04/11 03:31:38;;;;;;;28.65;19.23;;;;;;;4.77;100.00;100411.28;5070429;28;20700;-67
2023/04/11 03:34:06;;;;;;;29.25;19.63;;;;;;;4.73;100.00;100413.25;5073705;28;20118;-67
2023/04/11 03:36:31;;;;;;;27.77;18.45;;;;;;;4.70;100.00;100403.69;5092605;28;20072;-67
2023/04/11 03:38:57;;;;;;;25.80;18.10;;;;;;;4.64;100.00;100400.53;5089540;28;20024;-67
2023/04/11 03:41:22;;;;;;;26.23;18.63;;;;;;;4.66;100.00;100406.63;5086438;28;20047;-67
2023/04/11 03:43:48;;;;;;;27.17;18.45;;;;;;;4.59;100.00;100407.97;5090341;28;20024;-68
2023/04/11 03:46:13;;;;;;;26.13;18.45;;;;;;;4.60;100.00;100410.50;5086869;28;20039;-67
2023/04/11 03:48:39;;;;;;;26.40;16.95;;;;;;;4.51;100.00;100403.09;5090525;28;20032;-68
2023/04/11 03:51:04;;;;;;;26.90;19.33;;;;;;;4.56;100.00;100408.13;5086704;28;20555;-67
2023/04/11 03:53:30;;;;;;;26.70;18.77;;;;;;;4.39;100.00;100387.09;5085832;28;20028;-67
2023/04/11 03:55:55;;;;;;;25.35;18.23;;;;;;;4.56;100.00;100413.44;5085552;28;20059;-67
2023/04/11 03:58:21;;;;;;;29.10;18.52;;;;;;;4.50;100.00;100400.56;5084813;28;20063;-67
2023/04/11 04:00:47;;;;;;;25.63;18.17;;;;;;;4.34;100.00;100386.50;5084986;28;20043;-67
2023/04/11 04:03:12;;;;;;;25.75;17.88;;;;;;;4.49;100.00;100412.13;5085007;28;20032;-67
2023/04/11 04:05:40;;;;;;;26.67;18.23;;;;;;;4.46;100.00;100414.97;5084801;28;20105;-67
2023/04/11 04:08:05;;;;;;;28.73;17.73;;;;;;;4.46;100.00;100417.63;5085049;28;20051;-68
2023/04/11 04:10:31;;;;;;;28.08;18.25;;;;;;;4.46;100.00;100425.59;5086347;28;20527;-67
2023/04/11 04:12:56;;;;;;;28.35;19.13;;;;;;;4.44;100.00;100424.81;5085002;28;20020;-67
2023/04/11 04:15:22;;;;;;;27.77;19.38;;;;;;;4.32;100.00;100402.53;5084638;28;20038;-67
2023/04/11 04:17:47;;;;;;;30.95;19.52;;;;;;;4.45;100.00;100423.88;5084639;28;20028;-65
2023/04/11 04:20:13;;;;;;;26.85;18.80;;;;;;;4.46;100.00;100430.91;5085058;28;20114;-66
2023/04/11 04:22:38;;;;;;;26.05;18.67;;;;;;;4.40;100.00;100413.56;5084678;28;20027;-67
2023/04/11 04:25:04;;;;;;;31.50;18.35;;;;;;;4.43;100.00;100425.78;5083709;28;20085;-67
2023/04/11 04:27:31;;;;;;;30.10;18.27;;;;;;;4.44;100.00;100435.44;5084867;28;20103;-67
2023/04/11 04:29:57;;;;;;;26.75;18.98;;;;;;;4.45;100.00;100429.22;5083700;28;20107;-68
2023/04/11 04:32:23;;;;;;;24.02;16.67;;;;;;;4.42;100.00;100426.72;5083695;28;20107;-67
2023/04/11 04:34:54;;;;;;;25.52;17.42;;;;;;;4.45;100.00;100421.25;5083143;28;20479;-68
2023/04/11 04:37:22;;;;;;;29.42;18.02;;;;;;;4.47;100.00;100421.97;5082957;28;20039;-68
2023/04/11 04:39:55;;;;;;;29.80;18.63;;;;;;;4.55;100.00;100435.66;5065367;28;20115;-68
2023/04/11 04:42:25;;;;;;;29.23;18.80;;;;;;;4.55;100.00;100427.69;5083159;28;20032;-68
2023/04/11 04:44:52;;;;;;;27.70;19.30;;;;;;;4.60;100.00;100422.94;5083525;28;20638;-67
2023/04/11 04:47:18;;;;;;;30.20;18.75;;;;;;;4.65;100.00;100431.47;5065437;28;20032;-67
2023/04/11 04:49:44;;;;;;;28.38;19.48;;;;;;;4.58;100.00;100403.59;5082932;28;20040;-67
2023/04/11 04:52:11;;;;;;;27.65;19.27;;;;;;;4.76;100.00;100418.38;5083151;28;20414;-68
2023/04/11 04:54:36;;;;;;;29.48;20.50;;;;;;;4.89;100.00;100418.44;5083387;28;20024;-68
2023/04/11 04:57:02;;;;;;;27.48;18.90;;;;;;;4.92;100.00;100411.16;5083444;28;20020;-68
2023/04/11 04:59:27;;;;;;;31.88;21.38;;;;;;;5.02;100.00;100406.09;5083593;28;20048;-68
2023/04/11 05:01:53;;;;;;;35.00;23.00;;;;;;;5.10;100.00;100412.66;5066472;28;20023;-67
2023/04/11 05:04:19;;;;;;;36.38;24.23;;;;;;;5.17;100.00;100402.47;5082816;28;20062;-68
2023/04/11 05:06:45;;;;;;;35.95;23.50;;;;;;;5.26;100.00;100409.84;5065293;28;20036;-67
2023/04/11 05:09:11;;;;;;;34.28;21.80;;;;;;;5.22;100.00;100382.59;5083089;28;20064;-68
2023/04/11 05:11:36;;;;;;;31.77;22.65;;;;;;;5.46;100.00;100407.59;5083570;28;20713;-68
2023/04/11 05:14:02;;;;;;;34.20;23.58;;;;;;;5.55;100.00;100408.81;5067640;28;20026;-68
2023/04/11 05:16:27;;;;;;;34.42;22.77;;;;;;;5.68;100.00;100413.19;5083457;28;20024;-69
2023/04/11 05:18:53;;;;;;;32.13;22.83;;;;;;;5.82;100.00;100414.97;5083331;28;20028;-69
2023/04/11 05:21:18;;;;;;;33.72;23.92;;;;;;;5.93;100.00;100418.63;5082563;28;20139;-68
2023/04/11 05:23:43;;;;;;;36.30;23.38;;;;;;;6.05;100.00;100409.81;5083516;28;20042;-68
2023/04/11 05:26:10;;;;;;;36.03;24.50;;;;;;;6.20;100.00;100402.59;5082989;28;20028;-68
2023/04/11 05:28:35;;;;;;;37.15;24.15;;;;;;;6.42;100.00;100418.81;5083924;28;20028;-68
2023/04/11 05:31:01;;;;;;;37.80;24.77;;;;;;;6.61;100.00;100412.09;5064033;28;20165;-68
2023/04/11 05:33:27;;;;;;;40.80;25.75;;;;;;;6.74;100.00;100404.94;5083752;28;20062;-68
2023/04/11 05:35:52;;;;;;;38.85;25.35;;;;;;;6.79;100.00;100384.16;5082151;28;20531;-68
2023/04/11 05:38:19;;;;;;;37.47;24.13;;;;;;;7.18;100.00;100416.88;5086142;28;20246;-68
2023/04/11 05:40:44;;;;;;;33.15;23.30;;;;;;;7.37;100.00;100406.59;5087870;28;20108;-68
2023/04/11 05:43:13;;;;;;;34.97;24.60;;;;;;;7.50;100.00;100380.69;5087631;28;20103;-68
2023/04/11 05:45:39;;;;;;;40.35;27.88;;;;;;;7.74;100.00;100392.25;5087261;28;20077;-68
2023/04/11 05:48:08;;;;;;;45.47;28.23;;;;;;;7.88;100.00;100373.34;5086988;28;20069;-69
2023/04/11 05:50:34;;;;;;;38.00;27.20;;;;;;;8.21;100.00;100386.78;5080827;28;20031;-68
2023/04/11 05:53:00;;;;;;;37.58;26.30;;;;;;;8.43;100.00;100384.19;5086036;28;20024;-69
2023/04/11 05:55:25;;;;;;;41.30;27.40;;;;;;;8.58;100.00;100378.50;5085108;28;20020;-68
2023/04/11 05:57:51;;;;;;;36.20;25.65;;;;;;;8.87;100.00;100369.00;5085351;28;20032;-68
2023/04/11 06:00:17;;;;;;;32.60;24.38;;;;;;;9.06;100.00;100360.34;5086403;28;20475;-69
2023/04/11 06:02:42;;;;;;;31.95;23.90;;;;;;;9.32;100.00;100375.13;5086445;28;20039;-69
2023/04/11 06:05:12;;;;;;;36.03;23.15;;;;;;;9.46;100.00;100374.88;5067456;28;20036;-69
2023/04/11 06:07:38;;;;;;;31.70;23.63;;;;;;;9.66;100.00;100358.00;5087581;28;20111;-69
2023/04/11 06:10:07;;;;;;;33.30;23.58;;;;;;;9.88;100.00;100363.25;5087005;28;20498;-69
2023/04/11 06:12:33;;;;;;;32.28;24.02;;;;;;;10.06;100.00;100356.38;5068989;28;20026;-69
2023/04/11 06:14:59;;;;;;;34.10;24.15;;;;;;;10.27;100.00;100359.06;5086803;28;20032;-69
2023/04/11 06:17:25;;;;;;;32.35;24.25;;;;;;;10.56;100.00;100354.69;5087417;28;20031;-69
2023/04/11 06:19:50;;;;;;;35.63;26.17;;;;;;;10.88;100.00;100353.59;5086875;28;20514;-69
2023/04/11 06:22:15;;;;;;;34.53;25.15;;;;;;;11.10;98.92;100350.66;5087032;28;20052;-68
2023/04/11 06:24:41;;;;;;;32.50;24.17;;;;;;;11.25;99.67;100360.03;5086711;28;20464;-68
2023/04/11 06:27:10;;;;;;;29.27;22.25;;;;;;;11.40;98.01;100357.81;5087158;28;20028;-69
2023/04/11 06:29:39;;;;;;;30.77;22.67;;;;;;;11.46;97.32;100336.63;5087371;28;20046;-69
2023/04/11 06:32:06;;;;;;;30.63;21.00;;;;;;;11.83;92.48;100362.84;5086273;28;20476;-68
2023/04/11 06:34:31;;;;;;;32.05;21.50;;;;;;;12.09;89.95;100358.56;5087223;28;20056;-69
2023/04/11 06:36:57;;;;;;;27.15;17.83;;;;;;;12.23;85.58;100342.84;5086613;28;20058;-68
2023/04/11 06:39:22;;;;;;;24.08;18.55;;;;;;;12.36;87.87;100351.44;5086379;28;20028;-69
2023/04/11 06:41:48;;;;;;;23.10;16.95;;;;;;;12.65;85.08;100346.84;5086773;28;20035;-68
2023/04/11 06:44:14;;;;;;;22.25;17.40;;;;;;;12.76;82.83;100346.63;5086211;28;20028;-68
2023/04/11 06:46:39;;;;;;;21.55;15.55;;;;;;;12.98;80.71;100345.41;5084651;28;20928;-68
2023/04/11 06:49:08;;;;;;;20.35;16.63;;;;;;;13.10;83.26;100336.16;5077493;28;20024;-69
2023/04/11 06:51:35;;;;;;;23.40;16.63;;;;;;;13.27;83.08;100333.50;5078842;28;20114;-68
2023/04/11 06:54:01;;;;;;;20.27;15.35;;;;;;;13.66;75.93;100348.41;5083659;28;20027;-68
2023/04/11 06:56:27;;;;;;;20.13;14.25;;;;;;;13.88;74.27;100346.25;5087359;28;20035;-68
2023/04/11 06:58:52;;;;;;;16.77;12.75;;;;;;;13.98;73.55;100342.47;5079734;28;20032;-69
2023/04/11 07:01:19;;;;;;;19.50;12.73;;;;;;;14.06;74.05;100330.91;5084633;28;20032;-68
2023/04/11 07:03:48;;;;;;;14.25;10.95;;;;;;;14.16;72.79;100321.72;5076846;28;20399;-69
2023/04/11 07:06:14;;;;;;;19.55;13.18;;;;;;;14.41;70.30;100329.00;5084082;28;20127;-68
2023/04/11 07:08:40;;;;;;;15.68;12.25;;;;;;;14.53;69.79;100325.03;5067876;28;20127;-68
2023/04/11 07:11:06;;;;;;;15.60;11.40;;;;;;;14.69;66.94;100327.81;5085770;28;20073;-68
2023/04/11 07:13:32;;;;;;;14.23;11.25;;;;;;;14.66;67.94;100317.34;5081605;28;20032;-68
2023/04/11 07:15:58;;;;;;;13.70;11.45;;;;;;;14.84;68.87;100328.91;5085367;28;20028;-68
2023/04/11 07:18:24;;;;;;;15.20;11.23;;;;;;;14.93;66.67;100325.22;5085400;28;20032;-68
2023/04/11 07:20:51;;;;;;;14.00;10.50;;;;;;;15.06;65.51;100322.91;5067709;28;20316;-68
2023/04/11 07:23:16;;;;;;;13.93;11.20;;;;;;;14.99;65.95;100292.16;5084858;28;20395;-69
2023/04/11 07:25:43;;;;;;;15.02;10.95;;;;;;;15.40;63.89;100326.44;5085370;28;20031;-70
2023/04/11 07:28:10;;;;;;;17.58;11.77;;;;;;;15.48;64.70;100321.03;5081194;28;20061;-68
2023/04/11 07:30:36;;;;;;;13.27;9.75;;;;;;;15.67;63.82;100333.41;5067028;28;20024;-69
2023/04/11 07:33:02;;;;;;;14.27;9.52;;;;;;;15.90;63.01;100343.41;5085576;28;20098;-69
2023/04/11 07:35:27;;;;;;;13.50;9.00;;;;;;;16.07;60.98;100338.00;5084847;28;20023;-69
2023/04/11 07:37:53;;;;;;;13.07;9.32;;;;;;;16.12;58.95;100306.72;5085914;28;20016;-68
2023/04/11 07:40:19;;;;;;;12.30;8.63;;;;;;;16.35;59.46;100337.47;5080963;28;20036;-68
2023/04/11 07:42:45;;;;;;;10.77;7.28;;;;;;;16.52;57.79;100328.38;5064364;28;20026;-69
2023/04/11 07:45:11;;;;;;;12.27;7.88;;;;;;;16.59;58.14;100323.09;5081542;28;20027;-68
2023/04/11 07:47:37;;;;;;;9.93;7.55;;;;;;;16.79;58.44;100324.38;5085203;28;20042;-69
2023/04/11 07:50:03;;;;;;;8.10;7.05;;;;;;;16.96;56.15;100316.03;5084672;28;20423;-69
2023/04/11 07:52:29;;;;;;;9.32;6.85;;;;;;;17.08;54.67;100321.91;5079433;28;20392;-68
2023/04/11 07:54:55;;;;;;;9.27;6.75;;;;;;;17.13;54.06;100314.09;5073940;28;20031;-68
2023/04/11 07:57:20;;;;;;;11.32;7.10;;;;;;;17.30;52.61;100302.16;5084978;28;20035;-68
2023/04/11 07:59:46;;;;;;;9.02;7.00;;;;;;;17.46;53.17;100305.66;5066395;28;20036;-68
2023/04/11 08:02:11;;;;;;;8.13;6.72;;;;;;;17.46;54.07;100311.09;5084278;28;20519;-67
2023/04/11 08:04:37;;;;;;;7.85;6.82;;;;;;;17.62;54.39;100304.69;5084471;28;20048;-67
2023/04/11 08:07:03;;;;;;;7.93;6.53;;;;;;;17.93;53.42;100300.06;5066501;28;20032;-68
2023/04/11 08:09:28;;;;;;;8.38;6.78;;;;;;;18.33;51.77;100279.84;5084090;28;20044;-68
2023/04/11 08:11:55;;;;;;;7.75;6.63;;;;;;;18.93;48.81;100261.53;5084609;28;20106;-68
2023/04/11 08:14:21;;;;;;;7.00;6.25;;;;;;;19.44;48.61;100272.22;5084591;28;20028;-68
2023/04/11 08:16:47;;;;;;;10.35;6.45;;;;;;;20.31;45.80;100273.66;5084607;28;20028;-68
2023/04/11 08:19:13;;;;;;;7.40;6.60;;;;;;;21.00;44.39;100267.22;5084487;28;20027;-68
2023/04/11 08:21:38;;;;;;;7.72;4.93;;;;;;;22.27;41.44;100256.16;5084680;28;20077;-69
2023/04/11 08:24:04;;;;;;;8.80;6.38;;;;;;;23.29;39.78;100262.69;5083810;28;20462;-67
2023/04/11 08:26:29;;;;;;;7.05;5.22;;;;;;;24.24;37.19;100239.50;5084657;28;20043;-67
2023/04/11 08:28:55;;;;;;;7.63;5.10;;;;;;;24.23;36.87;100246.03;5084574;28;20028;-67
2023/04/11 08:31:20;;;;;;;7.60;4.97;;;;;;;24.18;37.01;100254.09;5084217;28;20024;-67
2023/04/11 08:33:46;;;;;;;4.63;4.05;;;;;;;24.67;35.87;100250.50;5084036;28;20024;-67
2023/04/11 08:36:11;;;;;;;4.30;3.45;;;;;;;24.26;36.18;100256.56;5084278;28;20627;-68
2023/04/11 08:38:38;;;;;;;4.82;3.97;;;;;;;23.92;35.44;100248.78;5083378;28;20047;-67
2023/04/11 08:41:04;;;;;;;5.20;4.18;;;;;;;23.00;36.79;100247.63;5084244;28;20032;-67
2023/04/11 08:43:34;;;;;;;5.50;4.18;;;;;;;21.91;39.07;100220.22;5083834;28;20032;-68
2023/04/11 08:46:02;;;;;;;7.75;5.28;;;;;;;21.38;41.00;100229.38;5084458;28;20088;-68
2023/04/11 08:48:29;;;;;;;7.78;5.35;;;;;;;21.36;41.55;100245.09;5083851;28;20077;-67
2023/04/11 08:50:54;;;;;;;6.57;5.43;;;;;;;21.28;41.46;100231.66;5084550;28;20153;-68
2023/04/11 08:53:23;;;;;;;6.43;5.63;;;;;;;21.29;40.98;100226.00;5065010;28;20788;-67
2023/04/11 08:55:49;;;;;;;7.20;5.25;;;;;;;21.42;41.70;100228.78;5066383;28;20051;-72
2023/04/11 08:58:16;;;;;;;6.90;5.72;;;;;;;22.30;39.41;100226.53;5084322;28;20035;-71
2023/04/11 09:00:42;;;;;;;7.18;5.93;;;;;;;22.56;39.38;100214.72;5084086;28;20073;-72
2023/04/11 09:03:11;;;;;;;8.95;5.38;;;;;;;22.67;39.16;100208.59;5082038;28;20361;-71
2023/04/11 09:05:38;;;;;;;8.15;6.05;;;;;;;22.96;39.17;100204.50;5081130;28;20076;-71
2023/04/11 09:08:17;;;;;;;7.45;5.43;;;;;;;23.30;39.17;100209.59;5082250;28;20020;-71
2023/04/11 09:10:44;;;;;;;6.00;5.40;;;;;;;23.64;38.00;100192.75;5082084;28;20904;-71
2023/04/11 09:13:24;;;;;;;8.43;5.43;;;;;;;23.76;37.15;100183.59;5085574;28;20471;-71
2023/04/11 09:16:11;;;;;;;8.05;6.07;;;;;;;23.27;38.51;100190.88;5069824;28;20035;-71
2023/04/11 09:18:39;;;;;;;7.30;6.00;;;;;;;23.16;38.49;100186.06;5086013;28;20123;-72
2023/04/11 09:21:08;;;;;;;6.95;5.97;;;;;;;22.58;39.27;100184.44;5068734;28;20024;-72
2023/04/11 09:23:34;;;;;;;6.07;5.05;;;;;;;21.86;40.84;100182.63;5087804;28;20073;-71
2023/04/11 09:26:00;;;;;;;6.95;5.70;;;;;;;21.40;41.36;100175.41;5087968;28;20107;-69
2023/04/11 09:28:25;;;;;;;7.05;5.78;;;;;;;20.94;42.91;100185.38;5069537;28;20466;-67
2023/04/11 09:30:53;;;;;;;8.40;5.70;;;;;;;20.93;42.28;100168.13;5087960;28;20376;-67
2023/04/11 09:33:24;;;;;;;7.13;5.72;;;;;;;20.95;41.90;100171.53;5087976;28;20035;-67
2023/04/11 09:35:51;;;;;;;5.32;4.82;;;;;;;20.67;42.76;100135.31;5088394;28;20507;-66
2023/04/11 09:38:27;;;;;;;9.57;5.82;;;;;;;20.89;42.74;100152.41;5087410;28;20024;-68
2023/04/11 09:40:54;;;;;;;8.25;5.47;;;;;;;20.66;42.98;100149.19;5087663;28;20054;-67
2023/04/11 09:43:19;;;;;;;7.10;5.90;;;;;;;20.40;43.66;100139.00;5087767;28;20064;-67
2023/04/11 09:45:45;;;;;;;9.95;6.00;;;;;;;20.10;43.64;100135.66;5085408;28;20098;-67
2023/04/11 09:48:12;;;;;;;8.93;6.05;;;;;;;19.79;44.50;100124.34;5084410;28;20020;-67
2023/04/11 09:50:38;;;;;;;8.80;5.63;;;;;;;19.78;44.87;100147.16;5085674;28;20020;-68
2023/04/11 09:53:05;;;;;;;6.00;5.13;;;;;;;19.64;45.61;100133.66;5086857;28;20039;-67
2023/04/11 09:55:31;;;;;;;7.10;5.43;;;;;;;19.70;45.71;100139.13;5086820;28;20090;-68
2023/04/11 09:57:58;;;;;;;7.18;5.20;;;;;;;19.64;45.82;100139.91;5085981;28;20353;-69
2023/04/11 10:00:31;;;;;;;7.20;5.60;;;;;;;19.46;46.28;100122.38;5087818;28;20097;-68
2023/04/11 10:02:57;;;;;;;8.50;5.85;;;;;;;19.67;45.62;100150.41;5087812;28;20476;-68
2023/04/11 10:05:27;;;;;;;8.80;6.43;;;;;;;19.51;45.74;100145.25;5087214;28;20097;-69
2023/04/11 10:08:04;;;;;;;9.63;5.60;;;;;;;19.47;45.67;100137.66;5087882;28;20027;-68
2023/04/11 10:10:31;;;;;;;8.43;5.65;;;;;;;19.41;46.12;100128.41;5068759;28;20109;-68
2023/04/11 10:12:56;;;;;;;9.05;5.55;;;;;;;19.23;46.77;100122.59;5087404;28;20028;-68
2023/04/11 10:15:22;;;;;;;11.48;6.10;;;;;;;19.40;46.64;100140.34;5087367;28;20028;-68
2023/04/11 10:18:08;;;;;;;8.25;5.85;;;;;;;19.41;47.05;100130.31;5087329;28;20028;-68
2023/04/11 10:20:34;;;;;;;7.65;5.78;;;;;;;19.44;47.22;100128.03;5087234;28;20023;-68
2023/04/11 10:23:00;;;;;;;7.97;6.47;;;;;;;19.39;46.39;100099.75;5086803;28;20039;-68
2023/04/11 10:25:27;;;;;;;8.45;6.47;;;;;;;19.51;46.14;100119.94;5086628;28;20368;-68
2023/04/11 10:28:00;;;;;;;10.45;5.95;;;;;;;19.64;46.11;100107.25;5087643;28;20031;-68
2023/04/11 10:30:40;;;;;;;8.68;6.75;;;;;;;19.64;46.36;100109.97;5087228;28;20567;-68
2023/04/11 10:33:14;;;;;;;8.63;6.72;;;;;;;19.82;45.80;100109.47;5086971;28;20486;-68
2023/04/11 10:36:08;;;;;;;8.95;6.60;;;;;;;19.78;46.17;100109.06;5086948;28;20101;-68
2023/04/11 10:38:40;;;;;;;8.55;6.22;;;;;;;19.77;46.39;100114.69;5086595;28;20019;-67
2023/04/11 10:41:32;;;;;;;10.18;6.88;;;;;;;19.82;45.46;100102.16;5086850;28;20086;-67
2023/04/11 10:44:16;;;;;;;10.93;7.15;;;;;;;19.78;45.45;100078.28;5086723;28;20051;-67
2023/04/11 10:46:52;;;;;;;9.18;6.57;;;;;;;19.86;44.89;100086.25;5086881;28;20527;-68
2023/04/11 10:49:39;;;;;;;8.55;6.65;;;;;;;19.71;46.01;100086.41;5067634;28;20044;-68
2023/04/11 10:52:20;;;;;;;8.45;6.53;;;;;;;19.72;45.83;100090.78;5087037;28;20050;-68
2023/04/11 10:54:46;;;;;;;7.97;6.72;;;;;;;19.70;45.16;100076.53;5086868;28;20036;-67
2023/04/11 10:57:12;;;;;;;13.00;7.47;;;;;;;19.62;45.55;100075.84;5086693;28;20024;-68
2023/04/11 10:59:37;;;;;;;8.60;7.70;;;;;;;19.57;45.28;100071.00;5068669;28;20384;-68
2023/04/11 11:02:03;;;;;;;10.35;7.70;;;;;;;19.43;45.30;100068.38;5086890;28;20032;-68
2023/04/11 11:04:32;;;;;;;9.80;7.90;;;;;;;19.45;45.27;100055.44;5086240;28;20147;-68
2023/04/11 11:07:00;;;;;;;8.65;7.72;;;;;;;19.32;45.91;100052.63;5082881;28;20433;-67
2023/04/11 11:09:27;;;;;;;9.35;7.95;;;;;;;19.19;46.87;100041.59;5085001;28;20067;-68
2023/04/11 11:12:11;;;;;;;9.82;8.00;;;;;;;19.22;47.12;100042.03;5086091;28;20020;-67
2023/04/11 11:14:38;;;;;;;10.18;8.20;;;;;;;19.18;46.59;100015.41;5084826;28;20118;-67